Terminal Aerodrome Forecast
Issued by NWS Louisville, KY

Home | Current Version | Previous Version | Text Only | Print | Product List | Glossary On
Versions: 1 2 3 4 5 6 7 8 9 10 11 12 13 14 15 16 17 18 19 20 21 22 23 24
000
FTUS43 KLMK 042300
TAFBWG
TAF
KBWG 042325Z 0500/0524 VRB04KT P6SM BKN040
     FM050300 VRB03KT 5SM BR SCT015 BKN030
     FM050900 00000KT 3SM BR BKN009 OVC015
     FM051000 00000KT 2SM BR BKN004
     FM051400 00000KT 6SM BR BKN015
     FM051800 08004KT P6SM BKN030=

USA.gov is the U.S. government's official web portal to all federal, state and local government web resources and services.